createdAt,value
2023-10-03T00:01:01.133Z,23.20
2023-10-03T00:03:28.603Z,24.53
2023-10-03T00:05:56.521Z,24.10
2023-10-03T00:08:24.264Z,23.00
2023-10-03T00:10:51.189Z,23.20
2023-10-03T00:13:20.193Z,23.03
2023-10-03T00:15:47.230Z,21.83
2023-10-03T00:18:15.142Z,23.17
2023-10-03T00:20:43.052Z,22.60
2023-10-03T00:23:10.220Z,23.10
2023-10-03T00:25:37.595Z,22.40
2023-10-03T00:28:07.139Z,22.50
2023-10-03T00:30:37.183Z,21.63
2023-10-03T00:33:06.783Z,22.50
2023-10-03T00:35:34.104Z,22.60
2023-10-03T00:38:01.677Z,23.47
2023-10-03T00:40:29.379Z,22.67
2023-10-03T00:43:02.145Z,22.43
2023-10-03T00:45:33.337Z,24.00
2023-10-03T00:48:13.150Z,23.77
2023-10-03T00:50:41.210Z,22.57
2023-10-03T00:53:12.201Z,21.47
2023-10-03T00:55:40.865Z,21.50
2023-10-03T00:58:19.071Z,22.27
2023-10-03T01:00:50.834Z,21.17
2023-10-03T01:03:40.959Z,21.77
2023-10-03T01:06:14.135Z,22.70
2023-10-03T01:08:43.586Z,21.40
2023-10-03T01:11:21.707Z,20.63
2023-10-03T01:14:01.817Z,22.07
2023-10-03T01:16:38.337Z,20.33
2023-10-03T01:19:13.623Z,23.87
2023-10-03T01:21:42.890Z,26.70
2023-10-03T01:24:10.693Z,23.70
2023-10-03T01:26:37.748Z,23.40
2023-10-03T01:29:04.830Z,24.97
2023-10-03T01:31:31.851Z,24.43
2023-10-03T01:33:58.661Z,22.93
2023-10-03T01:36:28.107Z,23.77
2023-10-03T01:38:54.843Z,22.90
2023-10-03T01:41:21.855Z,23.70
2023-10-03T01:43:49.534Z,22.77
2023-10-03T01:46:19.011Z,21.27
2023-10-03T01:48:45.995Z,22.47
2023-10-03T01:51:12.815Z,22.73
2023-10-03T01:53:41.447Z,22.47
2023-10-03T01:56:09.430Z,23.23
2023-10-03T01:58:36.334Z,22.77
2023-10-03T02:01:05.193Z,22.73
2023-10-03T02:03:34.445Z,21.93
2023-10-03T02:06:01.552Z,22.17
2023-10-03T02:08:28.386Z,23.10
2023-10-03T02:10:55.311Z,22.10
2023-10-03T02:13:25.244Z,22.40
2023-10-03T02:15:54.415Z,21.57
2023-10-03T02:18:22.156Z,20.93
2023-10-03T02:21:01.244Z,20.67
2023-10-03T02:23:28.947Z,21.03
2023-10-03T02:25:57.716Z,20.37
2023-10-03T02:28:28.752Z,19.90
2023-10-03T02:30:58.794Z,20.60
2023-10-03T02:33:27.947Z,20.77
2023-10-03T02:35:55.863Z,19.43
2023-10-03T02:38:28.293Z,20.07
2023-10-03T02:40:59.557Z,19.50
2023-10-03T02:43:32.059Z,19.13
2023-10-03T02:46:03.495Z,19.97
2023-10-03T02:48:30.527Z,20.33
2023-10-03T02:50:57.489Z,20.20
2023-10-03T02:53:24.656Z,20.63
2023-10-03T02:55:53.202Z,20.37
2023-10-03T02:58:21.627Z,19.30
2023-10-03T03:00:56.008Z,19.73
2023-10-03T03:03:24.785Z,20.67
2023-10-03T03:05:52.606Z,18.97
2023-10-03T03:08:22.105Z,19.60
2023-10-03T03:10:56.727Z,19.43
2023-10-03T03:13:25.862Z,21.13
2023-10-03T03:15:56.179Z,20.80
2023-10-03T03:18:25.439Z,19.67
2023-10-03T03:20:59.085Z,20.47
2023-10-03T03:23:38.532Z,21.03
2023-10-03T03:26:13.166Z,19.83
2023-10-03T03:28:47.005Z,21.13
2023-10-03T03:31:27.870Z,20.80
2023-10-03T03:34:04.034Z,20.37
2023-10-03T03:36:34.321Z,20.50
2023-10-03T03:39:06.391Z,20.60
2023-10-03T03:41:40.933Z,20.03
2023-10-03T03:44:20.078Z,20.90
2023-10-03T03:46:47.376Z,20.70
2023-10-03T03:49:20.370Z,21.20
2023-10-03T03:51:47.472Z,22.00
2023-10-03T03:54:15.327Z,19.83
2023-10-03T03:56:44.393Z,21.43
2023-10-03T03:59:14.315Z,20.30
2023-10-03T04:01:41.223Z,20.90
2023-10-03T04:04:12.664Z,20.60
2023-10-03T04:06:39.538Z,19.40
2023-10-03T04:09:09.029Z,18.40
2023-10-03T04:11:39.180Z,18.80
2023-10-03T04:14:07.914Z,19.47
2023-10-03T04:16:41.796Z,18.97
2023-10-03T04:19:09.786Z,19.30
2023-10-03T04:21:37.761Z,18.63
2023-10-03T04:24:06.828Z,19.13
2023-10-03T04:26:34.949Z,18.43
2023-10-03T04:29:04.858Z,19.23
2023-10-03T04:31:32.279Z,20.03
2023-10-03T04:33:59.151Z,18.93
2023-10-03T04:36:27.520Z,19.10
2023-10-03T04:38:54.884Z,18.67
2023-10-03T04:41:25.277Z,19.53
2023-10-03T04:43:53.078Z,18.97
2023-10-03T04:46:19.991Z,19.90
2023-10-03T04:48:47.546Z,18.00
2023-10-03T04:51:17.395Z,19.90
2023-10-03T04:53:44.453Z,18.57
2023-10-03T04:56:11.481Z,18.67
2023-10-03T04:58:38.930Z,19.47
2023-10-03T05:01:06.520Z,20.17
2023-10-03T05:03:33.652Z,20.37
2023-10-03T05:06:02.420Z,18.90
2023-10-03T05:08:29.472Z,19.47
2023-10-03T05:10:56.346Z,20.03
2023-10-03T05:13:23.339Z,20.10
2023-10-03T05:15:52.712Z,19.43
2023-10-03T05:18:20.370Z,21.67
2023-10-03T05:20:47.509Z,19.80
2023-10-03T05:23:15.942Z,20.07
2023-10-03T05:25:44.672Z,19.70
2023-10-03T05:28:14.548Z,20.53
2023-10-03T05:30:42.348Z,20.20
2023-10-03T05:33:09.745Z,19.80
2023-10-03T05:35:37.340Z,20.83
2023-10-03T05:38:10.968Z,19.63
2023-10-03T05:40:38.371Z,19.60
2023-10-03T05:43:06.961Z,19.70
2023-10-03T05:45:36.613Z,18.83
2023-10-03T05:48:05.281Z,21.10
2023-10-03T05:50:34.334Z,20.47
2023-10-03T05:53:02.441Z,19.10
2023-10-03T05:55:29.503Z,19.47
2023-10-03T05:58:01.474Z,19.23
2023-10-03T06:00:30.611Z,20.10
2023-10-03T06:03:00.835Z,19.50
2023-10-03T06:05:28.395Z,19.50
2023-10-03T06:07:55.372Z,18.70
2023-10-03T06:10:22.585Z,18.37
2023-10-03T06:12:53.907Z,19.40
2023-10-03T06:15:20.714Z,18.23
2023-10-03T06:17:47.609Z,18.60
2023-10-03T06:20:15.512Z,20.73
2023-10-03T06:22:43.694Z,19.67
2023-10-03T06:25:12.127Z,19.57
2023-10-03T06:27:39.541Z,20.43
2023-10-03T06:30:09.572Z,18.30
2023-10-03T06:32:36.658Z,18.27
2023-10-03T06:35:06.724Z,19.43
2023-10-03T06:37:34.722Z,18.93
2023-10-03T06:40:08.571Z,19.17
2023-10-03T06:42:36.512Z,18.67
2023-10-03T06:45:09.548Z,21.10
2023-10-03T06:47:40.267Z,19.20
2023-10-03T06:50:08.390Z,19.60
2023-10-03T06:52:36.436Z,20.13
2023-10-03T06:55:06.453Z,19.17
2023-10-03T06:57:37.897Z,20.10
2023-10-03T07:00:05.419Z,19.63
2023-10-03T07:02:32.422Z,20.00
2023-10-03T07:04:59.295Z,20.33
2023-10-03T07:07:26.442Z,19.80
2023-10-03T07:09:53.614Z,19.33
2023-10-03T07:12:20.479Z,20.37
2023-10-03T07:14:49.980Z,18.97
2023-10-03T07:17:17.953Z,18.53
2023-10-03T07:19:49.594Z,21.03
2023-10-03T07:22:17.909Z,20.13
2023-10-03T07:24:44.689Z,20.17
2023-10-03T07:27:14.823Z,19.37
2023-10-03T07:29:45.319Z,20.57
2023-10-03T07:32:13.902Z,20.63
2023-10-03T07:34:46.220Z,20.87
2023-10-03T07:37:17.123Z,19.17
2023-10-03T07:39:44.143Z,20.53
2023-10-03T07:42:13.060Z,20.53
2023-10-03T07:44:41.236Z,19.63
2023-10-03T07:47:08.509Z,19.37
2023-10-03T07:49:35.443Z,19.53
2023-10-03T07:52:02.292Z,17.83
2023-10-03T07:54:33.571Z,19.53
2023-10-03T07:57:06.505Z,19.83
2023-10-03T07:59:34.040Z,19.50
2023-10-03T08:02:06.175Z,18.67
2023-10-03T08:04:33.861Z,17.77
2023-10-03T08:07:01.557Z,17.80
2023-10-03T08:09:28.450Z,17.53
2023-10-03T08:11:56.772Z,16.33
2023-10-03T08:14:24.676Z,15.20
2023-10-03T08:16:53.326Z,16.67
2023-10-03T08:19:23.747Z,14.60
2023-10-03T08:21:53.389Z,14.57
2023-10-03T08:24:26.057Z,14.03
2023-10-03T08:26:53.733Z,12.77
2023-10-03T08:29:24.279Z,12.73
2023-10-03T08:31:58.923Z,12.47
2023-10-03T08:34:30.384Z,12.13
2023-10-03T08:37:01.759Z,10.97
2023-10-03T08:39:34.289Z,11.47
2023-10-03T08:42:14.579Z,11.00
2023-10-03T08:44:59.847Z,11.67
2023-10-03T08:47:38.105Z,11.13
2023-10-03T08:50:13.226Z,9.80
2023-10-03T08:52:54.204Z,9.87
2023-10-03T08:55:22.131Z,10.30
2023-10-03T08:57:50.329Z,9.73
2023-10-03T09:00:18.696Z,10.27
2023-10-03T09:02:53.616Z,9.10
2023-10-03T09:05:22.499Z,9.17
2023-10-03T09:07:50.822Z,9.27
2023-10-03T09:10:24.893Z,8.63
2023-10-03T09:12:53.679Z,8.20
2023-10-03T09:15:24.871Z,7.37
2023-10-03T09:17:54.258Z,5.77
2023-10-03T09:20:22.904Z,7.07
2023-10-03T09:22:50.750Z,6.50
2023-10-03T09:25:19.391Z,7.13
2023-10-03T09:27:46.571Z,5.97
2023-10-03T09:30:24.182Z,5.63
2023-10-03T09:32:55.662Z,6.83
2023-10-03T09:35:22.660Z,7.20
2023-10-03T09:37:50.046Z,6.53
2023-10-03T09:40:20.198Z,6.63
2023-10-03T09:42:51.341Z,6.57
2023-10-03T09:45:25.927Z,5.87
2023-10-03T09:48:11.478Z,6.00
2023-10-03T09:50:40.566Z,6.03
2023-10-03T09:53:08.524Z,5.70
2023-10-03T09:55:42.922Z,6.50
2023-10-03T09:58:10.675Z,6.10
2023-10-03T10:00:41.984Z,5.87
2023-10-03T10:03:15.818Z,6.07
2023-10-03T10:05:54.232Z,5.83
2023-10-03T10:08:32.252Z,6.30
2023-10-03T10:11:09.234Z,6.00
2023-10-03T10:13:44.197Z,6.43
2023-10-03T10:16:12.806Z,6.13
2023-10-03T10:18:45.974Z,5.97
2023-10-03T10:21:26.748Z,5.90
2023-10-03T10:24:18.093Z,7.00
2023-10-03T10:26:50.243Z,6.20
2023-10-03T10:29:21.643Z,5.37
2023-10-03T10:31:59.550Z,5.20
2023-10-03T10:34:33.925Z,5.53
2023-10-03T10:37:26.067Z,4.73
2023-10-03T10:39:56.387Z,4.80
2023-10-03T10:42:27.285Z,5.10
2023-10-03T10:45:15.165Z,5.17
2023-10-03T10:47:47.005Z,4.77
2023-10-03T10:50:21.840Z,4.90
2023-10-03T10:52:59.216Z,4.60
2023-10-03T10:55:27.476Z,4.70
2023-10-03T10:58:23.627Z,4.90
2023-10-03T11:00:59.052Z,4.87
2023-10-03T11:03:26.042Z,4.90
2023-10-03T11:05:53.056Z,4.23
2023-10-03T11:08:19.899Z,4.73
2023-10-03T11:10:54.824Z,4.77
2023-10-03T11:13:22.401Z,4.53
2023-10-03T11:15:53.635Z,5.10
2023-10-03T11:18:34.568Z,5.07
2023-10-03T11:21:05.351Z,5.13
2023-10-03T11:23:33.118Z,5.00
2023-10-03T11:26:02.208Z,4.90
2023-10-03T11:28:30.923Z,4.60
2023-10-03T11:31:05.161Z,4.40
2023-10-03T11:33:46.106Z,4.80
2023-10-03T11:36:14.753Z,5.90
2023-10-03T11:38:49.205Z,4.60
2023-10-03T11:41:30.886Z,5.30
2023-10-03T11:43:57.816Z,4.80
2023-10-03T11:46:24.780Z,4.93
2023-10-03T11:49:02.375Z,4.47
2023-10-03T11:51:32.775Z,4.50
2023-10-03T11:53:59.696Z,4.37
2023-10-03T11:56:26.515Z,4.10
2023-10-03T11:58:55.458Z,4.53
2023-10-03T12:01:24.722Z,4.37
2023-10-03T12:03:54.853Z,4.60
2023-10-03T12:06:25.283Z,4.90
2023-10-03T12:08:52.587Z,4.50
2023-10-03T12:11:21.505Z,4.43
2023-10-03T12:13:48.437Z,4.30
2023-10-03T12:16:17.247Z,4.47
2023-10-03T12:18:44.503Z,4.30
2023-10-03T12:21:12.615Z,4.47
2023-10-03T12:23:39.792Z,5.10
2023-10-03T12:26:16.622Z,4.83
2023-10-03T12:29:03.855Z,5.50
2023-10-03T12:31:31.942Z,4.87
2023-10-03T12:34:00.025Z,5.57
2023-10-03T12:36:29.906Z,4.53
2023-10-03T12:38:57.732Z,4.73
2023-10-03T12:41:31.012Z,5.07
2023-10-03T12:43:58.516Z,5.63
2023-10-03T12:46:25.447Z,4.53
2023-10-03T12:48:54.019Z,5.27
2023-10-03T12:51:20.942Z,5.60
2023-10-03T12:53:47.846Z,5.10
2023-10-03T12:56:14.712Z,4.87
2023-10-03T12:58:41.912Z,5.70
2023-10-03T13:01:08.861Z,5.17
2023-10-03T13:03:36.015Z,5.37
2023-10-03T13:06:03.030Z,5.23
2023-10-03T13:08:30.909Z,5.00
2023-10-03T13:11:07.261Z,5.20
2023-10-03T13:13:36.086Z,5.30
2023-10-03T13:16:03.072Z,5.03
2023-10-03T13:18:30.363Z,4.93
2023-10-03T13:20:57.285Z,5.47
2023-10-03T13:23:24.809Z,5.33
2023-10-03T13:25:52.444Z,5.73
2023-10-03T13:28:20.402Z,5.03
2023-10-03T13:30:47.791Z,5.50
2023-10-03T13:33:15.009Z,5.40
2023-10-03T13:35:42.775Z,5.00
2023-10-03T13:38:10.323Z,5.13
2023-10-03T13:40:37.415Z,5.70
2023-10-03T13:43:05.844Z,5.50
2023-10-03T13:45:33.565Z,5.80
2023-10-03T13:48:01.787Z,5.23
2023-10-03T13:50:30.160Z,5.33
2023-10-03T13:52:57.181Z,5.77
2023-10-03T13:55:27.635Z,5.30
2023-10-03T13:57:57.443Z,5.97
2023-10-03T14:00:26.178Z,5.57
2023-10-03T14:02:54.910Z,5.67
2023-10-03T14:05:22.387Z,6.10
2023-10-03T14:07:49.213Z,5.40
2023-10-03T14:10:17.491Z,6.30
2023-10-03T14:12:44.998Z,5.50
2023-10-03T14:15:12.836Z,5.57
2023-10-03T14:17:40.284Z,5.60
2023-10-03T14:20:13.693Z,5.53
2023-10-03T14:22:42.149Z,5.67
2023-10-03T14:25:13.999Z,5.67
2023-10-03T14:27:43.379Z,6.17
2023-10-03T14:30:11.566Z,5.47
2023-10-03T14:32:39.419Z,5.53
2023-10-03T14:35:08.837Z,5.60
2023-10-03T14:37:36.825Z,5.43
2023-10-03T14:40:10.706Z,5.53
2023-10-03T14:42:38.602Z,5.97
2023-10-03T14:45:07.515Z,5.70
2023-10-03T14:47:34.715Z,6.10
2023-10-03T14:50:02.381Z,5.77
2023-10-03T14:52:29.292Z,5.37
2023-10-03T14:54:56.302Z,4.97
2023-10-03T14:57:23.293Z,5.33
2023-10-03T14:59:51.762Z,5.87
2023-10-03T15:02:18.829Z,5.07
2023-10-03T15:04:46.857Z,4.33
2023-10-03T15:07:18.062Z,5.40
2023-10-03T15:09:45.722Z,4.67
2023-10-03T15:12:14.138Z,5.10
2023-10-03T15:14:41.871Z,4.67
2023-10-03T15:17:12.057Z,4.57
2023-10-03T15:19:39.984Z,4.27
2023-10-03T15:22:13.080Z,4.60
2023-10-03T15:24:41.145Z,4.70
2023-10-03T15:27:10.770Z,5.13
2023-10-03T15:29:38.335Z,5.03
2023-10-03T15:32:05.391Z,4.60
2023-10-03T15:34:33.601Z,4.73
2023-10-03T15:37:07.270Z,4.50
2023-10-03T15:39:35.177Z,4.63
2023-10-03T15:42:02.138Z,4.77
2023-10-03T15:44:29.066Z,4.07
2023-10-03T15:46:56.062Z,4.60
2023-10-03T15:49:25.351Z,4.40
2023-10-03T15:51:52.727Z,3.93
2023-10-03T15:54:19.659Z,4.60
2023-10-03T15:56:46.639Z,4.83
2023-10-03T15:59:15.056Z,4.80
2023-10-03T16:01:42.954Z,4.30
2023-10-03T16:04:10.703Z,4.33
2023-10-03T16:06:39.112Z,4.10
2023-10-03T16:09:14.074Z,4.53
2023-10-03T16:11:43.077Z,3.80
2023-10-03T16:14:15.070Z,4.00
2023-10-03T16:16:43.696Z,3.43
2023-10-03T16:19:12.133Z,3.20
2023-10-03T16:21:39.392Z,2.87
2023-10-03T16:24:07.444Z,3.30
2023-10-03T16:26:35.280Z,3.30
2023-10-03T16:29:02.818Z,3.57
2023-10-03T16:31:31.416Z,3.00
2023-10-03T16:33:58.649Z,3.27
2023-10-03T16:36:26.008Z,3.27
2023-10-03T16:38:53.643Z,2.63
2023-10-03T16:41:24.107Z,3.63
2023-10-03T16:43:51.176Z,3.07
2023-10-03T16:46:18.239Z,3.17
2023-10-03T16:48:45.525Z,3.00
2023-10-03T16:51:12.692Z,2.87
2023-10-03T16:53:39.660Z,2.73
2023-10-03T16:56:07.099Z,3.37
2023-10-03T16:58:33.969Z,2.83
2023-10-03T17:01:01.107Z,2.67
2023-10-03T17:03:31.406Z,3.07
2023-10-03T17:05:59.039Z,2.87
2023-10-03T17:08:26.224Z,2.83
2023-10-03T17:10:53.622Z,2.60
2023-10-03T17:13:20.888Z,2.90
2023-10-03T17:15:48.332Z,2.23
2023-10-03T17:18:15.230Z,2.60
2023-10-03T17:20:42.318Z,2.57
2023-10-03T17:23:09.708Z,2.40
2023-10-03T17:25:40.466Z,2.30
2023-10-03T17:28:07.597Z,2.40
2023-10-03T17:30:37.428Z,2.43
2023-10-03T17:33:05.835Z,2.40
2023-10-03T17:35:34.685Z,2.47
2023-10-03T17:38:03.439Z,2.47
2023-10-03T17:40:31.491Z,2.17
2023-10-03T17:42:58.810Z,2.43
2023-10-03T17:45:25.992Z,2.50
2023-10-03T17:47:53.311Z,2.03
2023-10-03T17:50:20.280Z,2.53
2023-10-03T17:52:47.705Z,2.30
2023-10-03T17:55:15.554Z,2.00
2023-10-03T17:57:44.591Z,1.77
2023-10-03T18:00:15.402Z,1.93
2023-10-03T18:02:45.797Z,2.10
2023-10-03T18:05:17.295Z,2.63
2023-10-03T18:07:45.192Z,2.20
2023-10-03T18:10:14.397Z,2.60
2023-10-03T18:12:45.280Z,2.33
2023-10-03T18:15:13.749Z,2.40
2023-10-03T18:17:41.911Z,2.50
2023-10-03T18:20:13.560Z,2.20
2023-10-03T18:22:42.861Z,2.30
2023-10-03T18:25:14.604Z,2.30
2023-10-03T18:27:44.302Z,2.10
2023-10-03T18:30:13.828Z,1.83
2023-10-03T18:32:41.990Z,2.47
2023-10-03T18:35:10.930Z,2.00
2023-10-03T18:37:39.082Z,1.83
2023-10-03T18:40:10.309Z,2.43
2023-10-03T18:42:39.147Z,1.80
2023-10-03T18:45:06.910Z,2.20
2023-10-03T18:47:34.619Z,2.40
2023-10-03T18:50:03.105Z,2.00
2023-10-03T18:52:33.134Z,1.93
2023-10-03T18:55:03.487Z,1.60
2023-10-03T18:57:31.663Z,1.83
2023-10-03T18:59:58.633Z,1.57
2023-10-03T19:02:25.656Z,1.70
2023-10-03T19:04:52.754Z,1.70
2023-10-03T19:07:19.788Z,1.63
2023-10-03T19:09:47.574Z,1.80
2023-10-03T19:12:14.917Z,1.80
2023-10-03T19:14:42.695Z,1.83
2023-10-03T19:17:09.884Z,2.03
2023-10-03T19:19:37.200Z,1.93
2023-10-03T19:22:05.963Z,2.13
2023-10-03T19:24:33.367Z,1.73
2023-10-03T19:27:00.587Z,1.80
2023-10-03T19:29:27.620Z,2.40
2023-10-03T19:31:55.998Z,2.20
2023-10-03T19:34:23.072Z,2.40
2023-10-03T19:36:49.863Z,1.97
2023-10-03T19:39:16.784Z,3.53
2023-10-03T19:41:43.994Z,2.00
2023-10-03T19:44:10.984Z,1.90
2023-10-03T19:46:38.515Z,2.20
2023-10-03T19:49:05.605Z,2.37
2023-10-03T19:51:34.227Z,2.00
2023-10-03T19:54:01.634Z,2.30
2023-10-03T19:56:28.605Z,2.63
2023-10-03T19:58:56.390Z,2.00
2023-10-03T20:01:24.818Z,2.03
2023-10-03T20:03:53.362Z,2.37
2023-10-03T20:06:21.048Z,1.83
2023-10-03T20:08:48.391Z,2.40
2023-10-03T20:11:16.001Z,2.23
2023-10-03T20:13:44.064Z,2.30
2023-10-03T20:16:12.581Z,1.80
2023-10-03T20:18:40.579Z,2.37
2023-10-03T20:21:08.378Z,2.17
2023-10-03T20:23:35.677Z,1.80
2023-10-03T20:26:03.115Z,2.30
2023-10-03T20:28:30.234Z,2.60
2023-10-03T20:30:58.116Z,2.60
2023-10-03T20:33:25.492Z,2.27
2023-10-03T20:35:53.990Z,2.10
2023-10-03T20:38:21.084Z,2.50
2023-10-03T20:40:48.181Z,2.13
2023-10-03T20:43:16.344Z,2.70
2023-10-03T20:45:43.190Z,2.40
2023-10-03T20:48:10.197Z,2.27
2023-10-03T20:50:37.528Z,2.57
2023-10-03T20:53:04.542Z,2.13
2023-10-03T20:55:31.656Z,2.27
2023-10-03T20:57:58.966Z,2.20
2023-10-03T21:00:28.128Z,2.10
2023-10-03T21:02:55.310Z,2.30
2023-10-03T21:05:22.623Z,2.30
2023-10-03T21:07:50.560Z,2.20
2023-10-03T21:10:17.878Z,2.50
2023-10-03T21:12:45.516Z,2.10
2023-10-03T21:15:14.012Z,2.40
2023-10-03T21:17:41.034Z,1.97
2023-10-03T21:20:13.118Z,2.30
2023-10-03T21:22:41.476Z,2.50
2023-10-03T21:25:10.658Z,2.20
2023-10-03T21:27:39.082Z,2.30
2023-10-03T21:30:08.660Z,1.67
2023-10-03T21:32:35.800Z,2.40
2023-10-03T21:35:03.466Z,2.27
2023-10-03T21:37:30.396Z,2.20
2023-10-03T21:39:57.346Z,2.40
2023-10-03T21:42:28.560Z,2.50
2023-10-03T21:44:56.241Z,2.20
2023-10-03T21:47:23.187Z,2.63
2023-10-03T21:49:50.926Z,2.17
2023-10-03T21:52:18.814Z,2.03
2023-10-03T21:54:47.178Z,2.10
2023-10-03T21:57:16.792Z,2.80
2023-10-03T21:59:44.036Z,2.50
2023-10-03T22:02:11.183Z,2.43
2023-10-03T22:04:41.454Z,2.10
2023-10-03T22:07:08.859Z,2.10
2023-10-03T22:09:35.906Z,2.73
2023-10-03T22:12:03.471Z,2.10
2023-10-03T22:14:30.379Z,2.13
2023-10-03T22:16:57.460Z,2.23
2023-10-03T22:19:24.328Z,1.80
2023-10-03T22:21:54.083Z,2.10
2023-10-03T22:24:27.972Z,2.50
2023-10-03T22:26:55.001Z,2.47
2023-10-03T22:29:21.885Z,2.70
2023-10-03T22:31:48.819Z,2.30
2023-10-03T22:34:16.251Z,2.20
2023-10-03T22:36:43.103Z,2.47
2023-10-03T22:39:10.089Z,2.47
2023-10-03T22:41:37.588Z,2.07
2023-10-03T22:44:04.961Z,2.63
2023-10-03T22:46:32.192Z,2.50
2023-10-03T22:48:59.214Z,2.20
2023-10-03T22:51:26.623Z,2.30
2023-10-03T22:53:53.983Z,2.00
2023-10-03T22:56:26.294Z,2.10
2023-10-03T22:58:54.669Z,2.40
2023-10-03T23:01:21.994Z,2.30
2023-10-03T23:03:49.015Z,2.27
2023-10-03T23:06:16.080Z,2.07
2023-10-03T23:08:43.438Z,2.30
2023-10-03T23:11:12.418Z,2.60
2023-10-03T23:13:40.337Z,2.30
2023-10-03T23:16:08.925Z,2.23
2023-10-03T23:18:36.324Z,2.83
2023-10-03T23:21:04.105Z,2.20
2023-10-03T23:23:31.807Z,2.30
2023-10-03T23:25:59.724Z,2.50
2023-10-03T23:28:26.837Z,2.37
2023-10-03T23:30:53.758Z,2.60
2023-10-03T23:33:20.753Z,2.03
2023-10-03T23:35:48.490Z,2.43
2023-10-03T23:38:15.675Z,2.47
2023-10-03T23:40:43.354Z,2.50
2023-10-03T23:43:10.456Z,2.30
2023-10-03T23:45:38.803Z,2.57
2023-10-03T23:48:06.377Z,2.30
2023-10-03T23:50:34.218Z,2.60
2023-10-03T23:53:07.332Z,2.27
2023-10-03T23:55:35.368Z,2.10
2023-10-03T23:58:06.103Z,2.93
